createdAt,value
2018-06-10T00:00:03.255Z,63.53
2018-06-10T00:01:24.262Z,63.13
2018-06-10T00:02:03.443Z,63.04
2018-06-10T00:03:03.239Z,63.23
2018-06-10T00:04:03.235Z,63.23
2018-06-10T00:05:03.233Z,63.33
2018-06-10T00:06:03.229Z,63.43
2018-06-10T00:07:24.237Z,63.33
2018-06-10T00:08:03.220Z,63.23
2018-06-10T00:09:03.221Z,63.10
2018-06-10T00:10:03.214Z,63.33
2018-06-10T00:11:03.210Z,63.30
2018-06-10T00:12:03.207Z,63.33
2018-06-10T00:13:24.206Z,63.13
2018-06-10T00:14:03.195Z,63.10
2018-06-10T00:15:03.194Z,63.10
2018-06-10T00:16:03.187Z,63.30
2018-06-10T00:17:03.194Z,63.49
2018-06-10T00:18:03.180Z,63.20
2018-06-10T00:19:24.191Z,63.59
2018-06-10T00:20:03.175Z,63.59
2018-06-10T00:21:03.166Z,63.49
2018-06-10T00:22:03.163Z,63.88
2018-06-10T00:23:03.163Z,63.98
2018-06-10T00:24:03.154Z,63.40
2018-06-10T00:25:24.160Z,63.40
2018-06-10T00:26:03.149Z,63.88
2018-06-10T00:27:03.156Z,63.30
2018-06-10T00:28:03.141Z,63.49
2018-06-10T00:29:03.136Z,63.49
2018-06-10T00:30:03.145Z,63.40
2018-06-10T00:31:24.133Z,63.59
2018-06-10T00:32:03.125Z,63.49
2018-06-10T00:33:03.119Z,63.49
2018-06-10T00:34:03.117Z,63.20
2018-06-10T00:35:03.115Z,63.23
2018-06-10T00:36:03.110Z,63.30
2018-06-10T00:37:24.113Z,63.30
2018-06-10T00:38:03.101Z,63.49
2018-06-10T00:39:03.094Z,63.49
2018-06-10T00:40:03.091Z,63.49
2018-06-10T00:41:03.089Z,63.20
2018-06-10T00:42:03.083Z,63.49
2018-06-10T00:43:24.088Z,63.49
2018-06-10T00:44:03.080Z,63.40
2018-06-10T00:45:03.072Z,63.49
2018-06-10T00:46:03.072Z,63.30
2018-06-10T00:47:03.084Z,63.49
2018-06-10T00:48:03.060Z,63.98
2018-06-10T00:49:24.062Z,63.59
2018-06-10T00:50:03.063Z,63.69
2018-06-10T00:51:03.065Z,63.69
2018-06-10T00:52:03.044Z,63.59
2018-06-10T00:53:03.038Z,63.88
2018-06-10T00:54:03.038Z,63.69
2018-06-10T00:55:24.044Z,63.78
2018-06-10T00:56:03.028Z,63.69
2018-06-10T00:57:03.024Z,63.59
2018-06-10T00:58:03.023Z,63.59
2018-06-10T00:59:03.015Z,63.49
2018-06-10T01:00:03.013Z,63.98
2018-06-10T01:01:24.016Z,63.40
2018-06-10T01:02:03.007Z,63.30
2018-06-10T01:03:03.003Z,63.20
2018-06-10T01:04:02.997Z,63.30
2018-06-10T01:05:02.996Z,63.78
2018-06-10T01:06:02.989Z,63.78
2018-06-10T01:07:23.994Z,63.40
2018-06-10T01:08:02.977Z,63.20
2018-06-10T01:09:03.021Z,63.59
2018-06-10T01:10:02.973Z,63.59
2018-06-10T01:11:02.969Z,63.59
2018-06-10T01:12:02.962Z,63.49
2018-06-10T01:13:23.961Z,63.78
2018-06-10T01:14:03.009Z,63.59
2018-06-10T01:15:02.951Z,63.20
2018-06-10T01:16:02.946Z,63.49
2018-06-10T01:17:02.941Z,63.30
2018-06-10T01:18:02.937Z,63.49
2018-06-10T01:19:23.948Z,63.59
2018-06-10T01:20:02.940Z,63.30
2018-06-10T01:21:02.929Z,63.59
2018-06-10T01:22:02.922Z,63.49
2018-06-10T01:23:02.918Z,63.30
2018-06-10T01:24:02.914Z,63.49
2018-06-10T01:25:23.928Z,63.10
2018-06-10T01:26:02.904Z,63.20
2018-06-10T01:27:02.906Z,63.01
2018-06-10T01:28:02.896Z,63.10
2018-06-10T01:29:02.894Z,63.10
2018-06-10T01:30:02.891Z,63.20
2018-06-10T01:31:23.896Z,63.40
2018-06-10T01:32:02.884Z,63.30
2018-06-10T01:33:02.879Z,63.30
2018-06-10T01:34:02.873Z,63.59
2018-06-10T01:35:02.871Z,63.33
2018-06-10T01:36:02.866Z,63.30
2018-06-10T01:37:23.870Z,63.53
2018-06-10T01:38:02.858Z,63.13
2018-06-10T01:39:02.855Z,63.01
2018-06-10T01:40:02.852Z,63.10
2018-06-10T01:41:02.846Z,63.01
2018-06-10T01:42:02.842Z,63.10
2018-06-10T01:43:23.847Z,63.13
2018-06-10T01:44:02.836Z,62.95
2018-06-10T01:45:02.832Z,63.01
2018-06-10T01:46:02.827Z,63.20
2018-06-10T01:47:02.824Z,63.49
2018-06-10T01:48:02.819Z,63.40
2018-06-10T01:49:23.827Z,63.40
2018-06-10T01:50:02.838Z,63.40
2018-06-10T01:51:02.806Z,63.59
2018-06-10T01:52:02.807Z,63.40
2018-06-10T01:53:02.799Z,63.59
2018-06-10T01:54:02.799Z,63.59
2018-06-10T01:55:23.802Z,63.20
2018-06-10T01:56:02.789Z,63.20
2018-06-10T01:57:02.783Z,63.49
2018-06-10T01:58:02.783Z,63.40
2018-06-10T01:59:02.805Z,63.20
2018-06-10T02:00:02.775Z,63.59
2018-06-10T02:01:23.776Z,63.78
2018-06-10T02:02:02.763Z,63.78
2018-06-10T02:03:02.763Z,63.88
2018-06-10T02:04:02.779Z,63.69
2018-06-10T02:05:02.752Z,63.78
2018-06-10T02:06:02.749Z,63.95
2018-06-10T02:07:23.754Z,63.98
2018-06-10T02:08:02.742Z,64.07
2018-06-10T02:09:02.748Z,63.98
2018-06-10T02:10:02.735Z,64.07
2018-06-10T02:11:02.730Z,63.98
2018-06-10T02:12:02.726Z,63.75
2018-06-10T02:13:23.726Z,64.07
2018-06-10T02:14:02.721Z,64.17
2018-06-10T02:15:02.716Z,63.98
2018-06-10T02:16:02.713Z,63.98
2018-06-10T02:17:02.705Z,63.69
2018-06-10T02:18:02.700Z,63.78
2018-06-10T02:19:23.705Z,63.88
2018-06-10T02:20:02.695Z,63.69
2018-06-10T02:21:02.689Z,63.49
2018-06-10T02:22:02.686Z,63.49
2018-06-10T02:23:02.680Z,63.59
2018-06-10T02:24:02.676Z,63.78
2018-06-10T02:25:23.679Z,63.88
2018-06-10T02:26:02.670Z,63.30
2018-06-10T02:27:02.667Z,63.98
2018-06-10T02:28:02.668Z,63.30
2018-06-10T02:29:02.657Z,63.30
2018-06-10T02:30:02.660Z,63.30
2018-06-10T02:31:23.659Z,63.30
2018-06-10T02:32:02.647Z,63.20
2018-06-10T02:33:02.644Z,63.20
2018-06-10T02:34:02.637Z,63.49
2018-06-10T02:35:02.641Z,63.49
2018-06-10T02:36:02.631Z,63.30
2018-06-10T02:37:23.637Z,63.49
2018-06-10T02:38:02.621Z,63.59
2018-06-10T02:39:02.626Z,63.30
2018-06-10T02:40:02.619Z,63.49
2018-06-10T02:41:02.613Z,63.40
2018-06-10T02:42:02.609Z,63.40
2018-06-10T02:43:23.612Z,63.40
2018-06-10T02:44:02.598Z,63.49
2018-06-10T02:45:02.597Z,63.49
2018-06-10T02:46:02.590Z,63.30
2018-06-10T02:47:02.589Z,63.30
2018-06-10T02:48:02.588Z,63.30
2018-06-10T02:49:23.593Z,63.30
2018-06-10T02:50:02.575Z,63.20
2018-06-10T02:51:02.574Z,63.20
2018-06-10T02:52:02.569Z,63.49
2018-06-10T02:53:02.570Z,63.59
2018-06-10T02:54:02.564Z,63.59
2018-06-10T02:55:23.570Z,63.30
2018-06-10T02:56:02.555Z,63.59
2018-06-10T02:57:02.558Z,63.49
2018-06-10T02:58:02.545Z,63.30
2018-06-10T02:59:02.552Z,63.69
2018-06-10T03:00:02.538Z,63.49
2018-06-10T03:01:23.543Z,63.78
2018-06-10T03:02:02.533Z,63.78
2018-06-10T03:03:02.527Z,64.07
2018-06-10T03:04:02.527Z,64.07
2018-06-10T03:05:02.526Z,64.04
2018-06-10T03:06:02.516Z,63.95
2018-06-10T03:07:23.518Z,63.65
2018-06-10T03:08:02.509Z,63.65
2018-06-10T03:09:02.501Z,63.85
2018-06-10T03:10:02.501Z,63.65
2018-06-10T03:11:02.500Z,64.14
2018-06-10T03:12:02.501Z,64.14
2018-06-10T03:13:23.493Z,64.04
2018-06-10T03:14:02.483Z,64.04
2018-06-10T03:15:02.479Z,63.85
2018-06-10T03:16:02.476Z,63.95
2018-06-10T03:17:02.470Z,63.65
2018-06-10T03:18:02.467Z,63.78
2018-06-10T03:19:23.471Z,63.75
2018-06-10T03:20:02.463Z,63.78
2018-06-10T03:21:02.455Z,63.88
2018-06-10T03:22:02.456Z,63.46
2018-06-10T03:23:02.444Z,63.20
2018-06-10T03:24:02.445Z,63.20
2018-06-10T03:25:23.444Z,63.30
2018-06-10T03:26:02.435Z,63.78
2018-06-10T03:27:02.430Z,63.56
2018-06-10T03:28:02.428Z,63.49
2018-06-10T03:29:02.424Z,63.49
2018-06-10T03:30:02.421Z,63.30
2018-06-10T03:31:23.425Z,63.30
2018-06-10T03:32:02.412Z,63.10
2018-06-10T03:33:02.413Z,63.20
2018-06-10T03:34:02.404Z,63.30
2018-06-10T03:35:02.400Z,63.20
2018-06-10T03:36:02.399Z,63.30
2018-06-10T03:37:23.398Z,63.17
2018-06-10T03:38:02.386Z,63.20
2018-06-10T03:39:02.381Z,63.30
2018-06-10T03:40:02.402Z,63.30
2018-06-10T03:41:02.378Z,62.98
2018-06-10T03:42:02.370Z,63.20
2018-06-10T03:43:23.372Z,63.01
2018-06-10T03:44:02.363Z,63.20
2018-06-10T03:45:02.357Z,63.10
2018-06-10T03:46:02.384Z,63.10
2018-06-10T03:47:02.352Z,63.10
2018-06-10T03:48:02.349Z,63.10
2018-06-10T03:49:23.351Z,63.01
2018-06-10T03:50:02.343Z,63.10
2018-06-10T03:51:02.337Z,62.98
2018-06-10T03:52:02.334Z,63.10
2018-06-10T03:53:02.329Z,62.98
2018-06-10T03:54:02.324Z,63.01
2018-06-10T03:55:23.326Z,63.01
2018-06-10T03:56:02.314Z,63.10
2018-06-10T03:57:02.309Z,63.07
2018-06-10T03:58:02.305Z,62.98
2018-06-10T03:59:02.306Z,63.01
2018-06-10T04:00:02.299Z,63.10
2018-06-10T04:01:23.307Z,63.27
2018-06-10T04:02:02.299Z,62.98
2018-06-10T04:03:02.290Z,63.10
2018-06-10T04:04:02.282Z,63.01
2018-06-10T04:05:02.281Z,63.20
2018-06-10T04:06:02.275Z,63.30
2018-06-10T04:07:23.282Z,63.30
2018-06-10T04:08:02.266Z,63.27
2018-06-10T04:09:02.264Z,63.27
2018-06-10T04:10:02.259Z,63.30
2018-06-10T04:11:02.255Z,63.20
2018-06-10T04:12:02.254Z,63.20
2018-06-10T04:13:23.253Z,63.59
2018-06-10T04:14:02.245Z,63.40
2018-06-10T04:15:02.243Z,63.49
2018-06-10T04:16:02.236Z,63.30
2018-06-10T04:17:02.238Z,63.30
2018-06-10T04:18:02.226Z,63.40
2018-06-10T04:19:23.230Z,63.30
2018-06-10T04:20:02.220Z,63.27
2018-06-10T04:21:02.215Z,63.30
2018-06-10T04:22:02.210Z,63.30
2018-06-10T04:23:02.208Z,63.40
2018-06-10T04:24:02.204Z,63.49
2018-06-10T04:25:23.206Z,63.49
2018-06-10T04:26:02.197Z,63.40
2018-06-10T04:27:02.194Z,63.49
2018-06-10T04:28:02.191Z,63.46
2018-06-10T04:29:02.182Z,63.59
2018-06-10T04:30:02.178Z,62.91
2018-06-10T04:31:23.183Z,63.01
2018-06-10T04:32:02.173Z,63.10
2018-06-10T04:33:02.165Z,63.01
2018-06-10T04:34:02.172Z,62.91
2018-06-10T04:35:02.164Z,63.10
2018-06-10T04:36:02.158Z,63.01
2018-06-10T04:37:23.157Z,63.01
2018-06-10T04:38:02.148Z,63.10
2018-06-10T04:39:02.151Z,63.10
2018-06-10T04:40:02.144Z,63.20
2018-06-10T04:41:02.134Z,63.20
2018-06-10T04:42:02.139Z,62.91
2018-06-10T04:43:23.137Z,63.01
2018-06-10T04:44:02.126Z,63.01
2018-06-10T04:45:02.121Z,63.01
2018-06-10T04:46:02.117Z,63.01
2018-06-10T04:47:02.112Z,63.01
2018-06-10T04:48:02.115Z,62.82
2018-06-10T04:49:23.112Z,62.82
2018-06-10T04:50:02.108Z,63.07
2018-06-10T04:51:02.097Z,62.82
2018-06-10T04:52:02.096Z,63.01
2018-06-10T04:53:02.142Z,62.98
2018-06-10T04:54:02.091Z,62.72
2018-06-10T04:55:23.097Z,62.82
2018-06-10T04:56:02.076Z,62.91
2018-06-10T04:57:02.070Z,62.82
2018-06-10T04:58:02.066Z,62.91
2018-06-10T04:59:02.065Z,62.72
2018-06-10T05:00:02.065Z,62.82
2018-06-10T05:01:23.061Z,62.82
2018-06-10T05:02:02.051Z,62.82
2018-06-10T05:03:02.048Z,62.82
2018-06-10T05:04:02.046Z,62.82
2018-06-10T05:05:02.039Z,62.82
2018-06-10T05:06:02.037Z,62.82
2018-06-10T05:07:23.038Z,62.72
2018-06-10T05:08:02.032Z,62.72
2018-06-10T05:09:02.026Z,62.72
2018-06-10T05:10:02.023Z,62.82
2018-06-10T05:11:02.018Z,62.91
2018-06-10T05:12:02.011Z,62.82
2018-06-10T05:13:23.016Z,62.82
2018-06-10T05:14:02.002Z,62.91
2018-06-10T05:15:01.998Z,62.82
2018-06-10T05:16:01.996Z,62.82
2018-06-10T05:17:01.991Z,63.01
2018-06-10T05:18:01.993Z,62.82
2018-06-10T05:19:23.004Z,63.01
2018-06-10T05:20:02.034Z,62.82
2018-06-10T05:21:01.979Z,63.01
2018-06-10T05:22:01.973Z,62.82
2018-06-10T05:23:01.971Z,62.91
2018-06-10T05:24:01.967Z,62.91
2018-06-10T05:25:22.977Z,62.82
2018-06-10T05:26:01.957Z,63.10
2018-06-10T05:27:01.950Z,62.82
2018-06-10T05:28:01.951Z,62.91
2018-06-10T05:29:01.951Z,63.10
2018-06-10T05:30:01.942Z,62.82
2018-06-10T05:31:22.942Z,62.72
2018-06-10T05:32:01.932Z,62.62
2018-06-10T05:33:01.927Z,62.82
2018-06-10T05:34:01.925Z,62.91
2018-06-10T05:35:01.927Z,63.01
2018-06-10T05:36:01.947Z,62.62
2018-06-10T05:37:22.919Z,62.82
2018-06-10T05:38:01.915Z,62.62
2018-06-10T05:39:01.906Z,62.62
2018-06-10T05:40:01.910Z,62.82
2018-06-10T05:41:01.896Z,62.72
2018-06-10T05:42:01.893Z,62.91
2018-06-10T05:43:22.899Z,62.82
2018-06-10T05:44:01.884Z,62.72
2018-06-10T05:45:01.881Z,63.01
2018-06-10T05:46:01.876Z,62.72
2018-06-10T05:47:01.876Z,62.82
2018-06-10T05:48:01.874Z,62.62
2018-06-10T05:49:22.874Z,62.82
2018-06-10T05:50:01.864Z,62.82
2018-06-10T05:51:01.873Z,62.62
2018-06-10T05:52:01.867Z,62.82
2018-06-10T05:53:01.848Z,62.62
2018-06-10T05:54:01.848Z,62.62
2018-06-10T05:55:22.848Z,62.72
2018-06-10T05:56:01.836Z,62.72
2018-06-10T05:57:01.834Z,62.62
2018-06-10T05:58:01.832Z,62.72
2018-06-10T05:59:01.825Z,62.82
2018-06-10T06:00:01.822Z,62.82
2018-06-10T06:01:22.827Z,62.72
2018-06-10T06:02:01.815Z,62.82
2018-06-10T06:03:01.814Z,62.82
2018-06-10T06:04:01.856Z,62.91
2018-06-10T06:05:01.802Z,62.91
2018-06-10T06:06:01.798Z,63.01
2018-06-10T06:07:22.802Z,63.13
2018-06-10T06:08:01.796Z,63.01
2018-06-10T06:09:01.792Z,63.01
2018-06-10T06:10:01.785Z,63.01
2018-06-10T06:11:01.783Z,63.01
2018-06-10T06:12:01.776Z,63.10
2018-06-10T06:13:22.850Z,63.10
2018-06-10T06:14:01.767Z,62.82
2018-06-10T06:15:01.765Z,63.10
2018-06-10T06:16:01.762Z,63.20
2018-06-10T06:17:01.753Z,63.23
2018-06-10T06:18:01.753Z,62.82
2018-06-10T06:19:22.754Z,62.72
2018-06-10T06:20:01.751Z,63.01
2018-06-10T06:21:01.738Z,62.91
2018-06-10T06:22:01.781Z,62.91
2018-06-10T06:23:01.735Z,62.91
2018-06-10T06:24:01.726Z,62.91
2018-06-10T06:25:22.728Z,62.82
2018-06-10T06:26:01.719Z,62.91
2018-06-10T06:27:01.720Z,63.01
2018-06-10T06:28:01.717Z,63.04
2018-06-10T06:29:01.707Z,63.10
2018-06-10T06:30:01.708Z,63.04
2018-06-10T06:31:22.706Z,62.91
2018-06-10T06:32:01.698Z,63.69
2018-06-10T06:33:01.693Z,63.49
2018-06-10T06:34:01.688Z,63.10
2018-06-10T06:35:01.683Z,63.13
2018-06-10T06:36:01.681Z,62.85
2018-06-10T06:37:22.685Z,63.33
2018-06-10T06:38:01.678Z,63.33
2018-06-10T06:39:01.668Z,63.40
2018-06-10T06:40:01.665Z,63.40
2018-06-10T06:41:01.660Z,63.33
2018-06-10T06:42:01.658Z,63.33
2018-06-10T06:43:22.659Z,63.33
2018-06-10T06:44:01.650Z,63.53
2018-06-10T06:45:01.651Z,63.33
2018-06-10T06:46:01.641Z,63.43
2018-06-10T06:47:01.642Z,63.43
2018-06-10T06:48:01.633Z,63.53
2018-06-10T06:49:22.644Z,63.33
2018-06-10T06:50:01.628Z,63.33
2018-06-10T06:51:01.621Z,63.33
2018-06-10T06:52:01.618Z,63.33
2018-06-10T06:53:01.619Z,63.62
2018-06-10T06:54:01.624Z,63.30
2018-06-10T06:55:22.613Z,63.20
2018-06-10T06:56:01.601Z,63.30
2018-06-10T06:57:01.597Z,63.40
2018-06-10T06:58:01.599Z,63.59
2018-06-10T06:59:01.590Z,63.33
2018-06-10T07:00:01.588Z,63.72
2018-06-10T07:01:22.588Z,63.23
2018-06-10T07:02:01.602Z,63.13
2018-06-10T07:03:01.575Z,63.33
2018-06-10T07:04:01.602Z,63.53
2018-06-10T07:05:01.568Z,63.43
2018-06-10T07:06:01.566Z,63.33
2018-06-10T07:07:22.571Z,63.69
2018-06-10T07:08:01.559Z,63.69
2018-06-10T07:09:01.556Z,64.65
2018-06-10T07:10:01.551Z,64.34
2018-06-10T07:11:01.542Z,64.34
2018-06-10T07:12:01.554Z,64.75
2018-06-10T07:13:22.542Z,64.27
2018-06-10T07:14:01.532Z,63.49
2018-06-10T07:15:01.528Z,63.69
2018-06-10T07:16:01.522Z,64.17
2018-06-10T07:17:01.523Z,63.98
2018-06-10T07:18:01.521Z,63.69
2018-06-10T07:19:22.523Z,63.78
2018-06-10T07:20:01.568Z,64.20
2018-06-10T07:21:01.505Z,63.62
2018-06-10T07:22:01.520Z,63.62
2018-06-10T07:23:01.499Z,63.23
2018-06-10T07:24:01.492Z,63.23
2018-06-10T07:25:22.496Z,63.07
2018-06-10T07:26:01.488Z,62.88
2018-06-10T07:27:01.482Z,62.78
2018-06-10T07:28:01.479Z,62.88
2018-06-10T07:29:01.473Z,62.59
2018-06-10T07:30:01.469Z,62.68
2018-06-10T07:31:22.478Z,62.49
2018-06-10T07:32:01.462Z,62.39
2018-06-10T07:33:01.459Z,62.10
2018-06-10T07:34:01.455Z,62.29
2018-06-10T07:35:01.453Z,62.29
2018-06-10T07:36:01.448Z,62.29
2018-06-10T07:37:22.454Z,62.13
2018-06-10T07:38:01.442Z,62.32
2018-06-10T07:39:01.439Z,62.23
2018-06-10T07:40:01.438Z,62.42
2018-06-10T07:41:01.427Z,62.23
2018-06-10T07:42:01.425Z,62.52
2018-06-10T07:43:22.426Z,62.23
2018-06-10T07:44:01.418Z,62.42
2018-06-10T07:45:01.411Z,62.04
2018-06-10T07:46:01.424Z,62.23
2018-06-10T07:47:01.406Z,62.42
2018-06-10T07:48:01.403Z,62.23
2018-06-10T07:49:22.402Z,62.42
2018-06-10T07:50:01.398Z,62.71
2018-06-10T07:51:01.390Z,62.42
2018-06-10T07:52:01.383Z,62.23
2018-06-10T07:53:01.384Z,62.42
2018-06-10T07:54:01.380Z,62.71
2018-06-10T07:55:22.385Z,62.71
2018-06-10T07:56:01.374Z,62.23
2018-06-10T07:57:01.371Z,62.16
2018-06-10T07:58:01.369Z,61.77
2018-06-10T07:59:01.374Z,61.68
2018-06-10T08:00:01.412Z,61.48
2018-06-10T08:01:22.357Z,61.51
2018-06-10T08:02:01.348Z,61.22
2018-06-10T08:03:01.344Z,61.51
2018-06-10T08:04:01.344Z,61.12
2018-06-10T08:05:01.340Z,61.12
2018-06-10T08:06:01.337Z,60.93
2018-06-10T08:07:22.340Z,61.12
2018-06-10T08:08:01.329Z,61.61
2018-06-10T08:09:01.330Z,60.93
2018-06-10T08:10:01.324Z,61.02
2018-06-10T08:11:01.321Z,60.64
2018-06-10T08:12:01.347Z,60.74
2018-06-10T08:13:22.315Z,60.83
2018-06-10T08:14:01.307Z,60.93
2018-06-10T08:15:01.350Z,60.74
2018-06-10T08:16:01.299Z,60.83
2018-06-10T08:17:01.294Z,60.74
2018-06-10T08:18:01.297Z,60.64
2018-06-10T08:19:22.300Z,60.83
2018-06-10T08:20:01.284Z,61.02
2018-06-10T08:21:01.282Z,60.93
2018-06-10T08:22:01.278Z,61.02
2018-06-10T08:23:01.273Z,60.83
2018-06-10T08:24:01.272Z,60.74
2018-06-10T08:25:22.271Z,60.74
2018-06-10T08:26:01.260Z,61.12
2018-06-10T08:27:01.263Z,61.41
2018-06-10T08:28:01.257Z,61.32
2018-06-10T08:29:01.249Z,61.32
2018-06-10T08:30:01.253Z,61.32
2018-06-10T08:31:22.256Z,61.22
2018-06-10T08:32:01.278Z,61.51
2018-06-10T08:33:01.235Z,61.58
2018-06-10T08:34:01.230Z,61.48
2018-06-10T08:35:01.235Z,61.71
2018-06-10T08:36:01.229Z,61.90
2018-06-10T08:37:22.289Z,61.71
2018-06-10T08:38:01.219Z,61.32
2018-06-10T08:39:01.220Z,61.32
2018-06-10T08:40:01.212Z,61.32
2018-06-10T08:41:01.209Z,61.22
2018-06-10T08:42:01.202Z,61.41
2018-06-10T08:43:22.201Z,61.41
2018-06-10T08:44:01.213Z,61.22
2018-06-10T08:45:01.189Z,61.12
2018-06-10T08:46:01.185Z,61.12
2018-06-10T08:47:01.178Z,61.12
2018-06-10T08:48:01.175Z,60.57
2018-06-10T08:49:22.186Z,60.67
2018-06-10T08:50:01.176Z,60.67
2018-06-10T08:51:01.159Z,60.47
2018-06-10T08:52:01.158Z,60.57
2018-06-10T08:53:01.151Z,60.57
2018-06-10T08:54:01.148Z,60.47
2018-06-10T08:55:22.153Z,60.47
2018-06-10T08:56:01.141Z,60.38
2018-06-10T08:57:01.157Z,60.47
2018-06-10T08:58:01.133Z,60.47
2018-06-10T08:59:01.138Z,60.28
2018-06-10T09:00:01.124Z,59.89
2018-06-10T09:01:22.127Z,59.99
2018-06-10T09:02:01.114Z,60.11
2018-06-10T09:03:01.112Z,60.02
2018-06-10T09:04:01.107Z,59.82
2018-06-10T09:05:01.130Z,59.43
2018-06-10T09:06:01.105Z,58.65
2018-06-10T09:07:22.106Z,58.87
2018-06-10T09:08:01.091Z,58.59
2018-06-10T09:09:01.088Z,58.49
2018-06-10T09:10:01.084Z,58.13
2018-06-10T09:11:01.111Z,58.03
2018-06-10T09:12:01.075Z,57.74
2018-06-10T09:13:22.080Z,58.03
2018-06-10T09:14:01.077Z,58.22
2018-06-10T09:15:01.063Z,57.45
2018-06-10T09:16:01.063Z,57.18
2018-06-10T09:17:01.057Z,57.76
2018-06-10T09:18:01.056Z,57.57
2018-06-10T09:19:22.071Z,57.09
2018-06-10T09:20:01.046Z,56.79
2018-06-10T09:21:01.045Z,56.70
2018-06-10T09:22:01.041Z,56.60
2018-06-10T09:23:01.035Z,56.99
2018-06-10T09:24:01.036Z,56.79
2018-06-10T09:25:22.038Z,56.99
2018-06-10T09:26:01.025Z,57.06
2018-06-10T09:27:01.027Z,57.64
2018-06-10T09:28:01.023Z,57.35
2018-06-10T09:29:01.019Z,57.54
2018-06-10T09:30:01.014Z,57.45
2018-06-10T09:31:22.035Z,57.64
2018-06-10T09:32:01.008Z,57.35
2018-06-10T09:33:01.006Z,57.54
2018-06-10T09:34:01.010Z,57.09
2018-06-10T09:35:01.002Z,57.28
2018-06-10T09:36:00.999Z,56.96
2018-06-10T09:37:21.999Z,57.15
2018-06-10T09:38:00.985Z,57.06
2018-06-10T09:39:00.983Z,56.86
2018-06-10T09:40:00.985Z,57.06
2018-06-10T09:41:00.974Z,56.96
2018-06-10T09:42:00.990Z,56.86
2018-06-10T09:43:21.979Z,56.79
2018-06-10T09:44:00.966Z,56.99
2018-06-10T09:45:00.962Z,56.40
2018-06-10T09:46:00.961Z,56.30
2018-06-10T09:47:00.957Z,55.91
2018-06-10T09:48:00.953Z,56.52
2018-06-10T09:49:21.954Z,55.75
2018-06-10T09:50:00.946Z,55.75
2018-06-10T09:51:00.949Z,55.94
2018-06-10T09:52:00.937Z,55.16
2018-06-10T09:53:00.939Z,55.36
2018-06-10T09:54:00.938Z,55.26
2018-06-10T09:55:22.025Z,54.97
2018-06-10T09:56:00.925Z,55.26
2018-06-10T09:57:00.924Z,55.16
2018-06-10T09:58:00.921Z,55.07
2018-06-10T09:59:00.915Z,54.48
2018-06-10T10:00:00.915Z,54.80
2018-06-10T10:01:21.917Z,54.70
2018-06-10T10:02:00.910Z,55.09
2018-06-10T10:03:00.909Z,54.90
2018-06-10T10:04:00.902Z,55.19
2018-06-10T10:05:00.901Z,54.99
2018-06-10T10:06:00.898Z,54.80
2018-06-10T10:07:21.955Z,54.80
2018-06-10T10:08:00.887Z,54.80
2018-06-10T10:09:00.883Z,54.50
2018-06-10T10:10:00.880Z,54.31
2018-06-10T10:11:00.880Z,54.63
2018-06-10T10:12:00.878Z,54.50
2018-06-10T10:13:21.878Z,54.21
2018-06-10T10:14:00.871Z,53.95
2018-06-10T10:15:00.872Z,54.14
2018-06-10T10:16:01.652Z,53.92
2018-06-10T10:17:00.854Z,54.14
2018-06-10T10:18:00.853Z,54.21
2018-06-10T10:19:21.858Z,54.14
2018-06-10T10:20:00.850Z,54.05
2018-06-10T10:21:00.846Z,54.24
2018-06-10T10:22:00.842Z,53.85
2018-06-10T10:23:00.838Z,53.66
2018-06-10T10:24:00.844Z,53.95
2018-06-10T10:25:21.886Z,53.83
2018-06-10T10:26:00.831Z,54.11
2018-06-10T10:27:00.888Z,54.11
2018-06-10T10:28:00.825Z,54.11
2018-06-10T10:29:00.818Z,54.68
2018-06-10T10:30:00.818Z,54.58
2018-06-10T10:31:21.836Z,54.38
2018-06-10T10:32:00.816Z,54.58
2018-06-10T10:33:00.926Z,54.68
2018-06-10T10:34:00.807Z,54.87
2018-06-10T10:35:00.802Z,54.87
2018-06-10T10:36:00.801Z,54.77
2018-06-10T10:37:21.805Z,54.65
2018-06-10T10:38:01.021Z,54.68
2018-06-10T10:39:00.787Z,54.58
2018-06-10T10:40:00.789Z,54.65
2018-06-10T10:41:00.785Z,54.46
2018-06-10T10:42:00.780Z,54.65
2018-06-10T10:43:21.795Z,54.55
2018-06-10T10:44:00.771Z,54.65
2018-06-10T10:45:00.768Z,54.65
2018-06-10T10:46:00.769Z,54.75
2018-06-10T10:47:00.762Z,54.65
2018-06-10T10:48:00.758Z,54.65
2018-06-10T10:49:21.761Z,55.23
2018-06-10T10:50:00.752Z,55.23
2018-06-10T10:51:00.747Z,55.33
2018-06-10T10:52:00.780Z,55.43
2018-06-10T10:53:00.744Z,55.33
2018-06-10T10:54:00.740Z,55.33
2018-06-10T10:55:21.740Z,55.36
2018-06-10T10:56:00.787Z,55.46
2018-06-10T10:57:00.749Z,55.36
2018-06-10T10:58:00.728Z,55.36
2018-06-10T10:59:00.724Z,55.26
2018-06-10T11:00:00.717Z,55.26
2018-06-10T11:01:21.722Z,55.26
2018-06-10T11:02:00.710Z,55.16
2018-06-10T11:03:00.708Z,55.85
2018-06-10T11:04:00.705Z,55.75
2018-06-10T11:05:00.699Z,55.94
2018-06-10T11:06:00.696Z,55.94
2018-06-10T11:07:21.725Z,56.23
2018-06-10T11:08:00.690Z,56.14
2018-06-10T11:09:00.688Z,56.23
2018-06-10T11:10:00.684Z,56.43
2018-06-10T11:11:00.682Z,56.82
2018-06-10T11:12:00.680Z,56.62
2018-06-10T11:13:21.680Z,56.92
2018-06-10T11:14:00.669Z,56.82
2018-06-10T11:15:00.666Z,57.21
2018-06-10T11:16:00.664Z,57.01
2018-06-10T11:17:00.659Z,57.01
2018-06-10T11:18:00.654Z,57.11
2018-06-10T11:19:21.663Z,57.31
2018-06-10T11:20:00.650Z,57.21
2018-06-10T11:21:00.645Z,57.31
2018-06-10T11:22:00.652Z,57.31
2018-06-10T11:23:00.639Z,57.21
2018-06-10T11:24:00.641Z,57.40
2018-06-10T11:25:21.640Z,56.92
2018-06-10T11:26:00.628Z,57.31
2018-06-10T11:27:00.651Z,57.40
2018-06-10T11:28:00.623Z,57.70
2018-06-10T11:29:00.619Z,57.40
2018-06-10T11:30:00.616Z,57.79
2018-06-10T11:31:21.627Z,57.21
2018-06-10T11:32:00.610Z,57.50
2018-06-10T11:33:00.604Z,58.22
2018-06-10T11:34:00.603Z,58.28
2018-06-10T11:35:00.601Z,57.89
2018-06-10T11:36:00.595Z,57.99
2018-06-10T11:37:21.604Z,58.48
2018-06-10T11:38:00.589Z,58.60
2018-06-10T11:39:00.584Z,58.28
2018-06-10T11:40:00.580Z,58.28
2018-06-10T11:41:00.592Z,58.48
2018-06-10T11:42:00.574Z,58.31
2018-06-10T11:43:21.580Z,58.28
2018-06-10T11:44:00.569Z,58.48
2018-06-10T11:45:00.578Z,58.22
2018-06-10T11:46:00.562Z,58.38
2018-06-10T11:47:00.577Z,58.60
2018-06-10T11:48:00.558Z,58.80
2018-06-10T11:49:21.560Z,59.06
2018-06-10T11:50:00.549Z,58.70
2018-06-10T11:51:00.547Z,59.77
2018-06-10T11:52:00.564Z,59.74
2018-06-10T11:53:00.541Z,59.94
2018-06-10T11:54:00.551Z,60.06
2018-06-10T11:55:21.541Z,60.16
2018-06-10T11:56:00.534Z,59.77
2018-06-10T11:57:00.531Z,59.58
2018-06-10T11:58:00.593Z,59.19
2018-06-10T11:59:00.524Z,58.80
2018-06-10T12:00:00.519Z,58.99
2018-06-10T12:01:21.526Z,59.09
2018-06-10T12:02:00.520Z,59.19
2018-06-10T12:03:00.511Z,59.06
2018-06-10T12:04:00.512Z,58.97
2018-06-10T12:05:00.498Z,58.87
2018-06-10T12:06:00.497Z,58.67
2018-06-10T12:07:21.501Z,59.16
2018-06-10T12:08:00.494Z,59.35
2018-06-10T12:09:00.491Z,59.55
2018-06-10T12:10:00.507Z,59.55
2018-06-10T12:11:00.485Z,59.74
2018-06-10T12:12:00.507Z,59.74
2018-06-10T12:13:21.481Z,59.74
2018-06-10T12:14:00.470Z,59.45
2018-06-10T12:15:00.468Z,59.74
2018-06-10T12:16:00.469Z,59.52
2018-06-10T12:17:00.460Z,59.74
2018-06-10T12:18:00.454Z,59.64
2018-06-10T12:19:21.463Z,59.55
2018-06-10T12:20:00.453Z,59.94
2018-06-10T12:21:00.446Z,59.72
2018-06-10T12:22:00.443Z,59.55
2018-06-10T12:23:00.440Z,59.45
2018-06-10T12:24:00.438Z,59.23
2018-06-10T12:25:21.442Z,59.23
2018-06-10T12:26:00.444Z,59.13
2018-06-10T12:27:00.424Z,59.13
2018-06-10T12:28:00.427Z,59.13
2018-06-10T12:29:00.415Z,59.42
2018-06-10T12:30:00.416Z,59.23
2018-06-10T12:31:21.425Z,59.23
2018-06-10T12:32:00.407Z,59.23
2018-06-10T12:33:00.404Z,58.84
2018-06-10T12:34:00.398Z,58.74
2018-06-10T12:35:00.401Z,58.84
2018-06-10T12:36:00.399Z,58.94
2018-06-10T12:37:21.400Z,58.74
2018-06-10T12:38:00.389Z,58.94
2018-06-10T12:39:00.388Z,58.94
2018-06-10T12:40:00.394Z,59.03
2018-06-10T12:41:00.383Z,58.94
2018-06-10T12:42:00.373Z,58.84
2018-06-10T12:43:21.377Z,58.84
2018-06-10T12:44:00.368Z,59.23
2018-06-10T12:45:00.365Z,58.94
2018-06-10T12:46:00.360Z,58.84
2018-06-10T12:47:00.363Z,58.94
2018-06-10T12:48:00.354Z,59.03
2018-06-10T12:49:21.391Z,58.84
2018-06-10T12:50:00.405Z,58.94
2018-06-10T12:51:00.358Z,58.74
2018-06-10T12:52:00.341Z,58.94